Time,TemperatureF,DewpointF,PressureIn,WindDirection,WindDirectionDegrees,WindSpeedMPH,WindSpeedGustMPH,Humidity,HourlyPrecipIn,Conditions,Clouds,dailyrainin,SoftwareType,DateUTC
2013-12-15 00:01:00,60.8,60.2,29.76,South,180,3.5,3.5,98,0.10,RA,,0.00,WeatherDisplay:10.37,2013-12-15 05:01:00,
2013-12-15 00:02:00,60.8,60.2,29.76,South,180,2.3,0.0,98,0.10,RA,,0.00,WeatherDisplay:10.37,2013-12-15 05:02:00,
2013-12-15 00:07:00,60.8,60.2,29.76,South,180,3.5,3.5,98,0.11,RA,,0.01,WeatherDisplay:10.37,2013-12-15 05:07:00,
2013-12-15 00:12:00,60.8,60.2,29.76,SW,225,3.5,3.5,98,0.11,RA,,0.01,WeatherDisplay:10.37,2013-12-15 05:12:00,
2013-12-15 00:17:00,60.8,60.2,29.76,SSW,202,0.0,0.0,98,0.10,,,0.01,WeatherDisplay:10.37,2013-12-15 05:17:00,
2013-12-15 00:22:00,60.8,60.2,29.76,South,180,0.0,0.0,98,0.09,CLR,,0.01,WeatherDisplay:10.37,2013-12-15 05:22:00,
2013-12-15 00:27:00,60.8,60.2,29.74,SSW,202,3.5,3.5,98,0.07,CLR,,0.01,WeatherDisplay:10.37,2013-12-15 05:27:00,
2013-12-15 00:33:00,60.8,60.2,29.74,SE,135,2.3,2.3,98,0.03,CLR,,0.01,WeatherDisplay:10.37,2013-12-15 05:33:00,
2013-12-15 00:38:00,60.8,60.2,29.74,SSW,202,3.5,3.5,98,0.03,RA,,0.02,WeatherDisplay:10.37,2013-12-15 05:38:00,
2013-12-15 00:43:00,60.6,60.0,29.74,SSW,202,6.9,6.9,98,0.03,RA,,0.02,WeatherDisplay:10.37,2013-12-15 05:43:00,
2013-12-15 00:48:00,60.6,60.0,29.74,West,270,0.0,0.0,98,0.03,CLR,,0.02,WeatherDisplay:10.37,2013-12-15 05:48:00,
2013-12-15 00:53:00,60.4,59.8,29.74,SW,225,3.8,3.8,98,0.02,CLR,,0.02,WeatherDisplay:10.37,2013-12-15 05:53:00,
2013-12-15 00:58:00,60.4,59.8,29.74,SW,225,3.5,3.5,98,0.02,CLR,,0.02,WeatherDisplay:10.37,2013-12-15 05:58:00,
2013-12-15 01:03:00,60.4,59.8,29.73,SW,225,0.0,0.0,98,0.02,CLR,,0.02,WeatherDisplay:10.37,2013-12-15 06:03:00,
2013-12-15 01:08:00,60.6,60.0,29.73,ESE,112,5.8,5.8,98,0.01,CLR,,0.02,WeatherDisplay:10.37,2013-12-15 06:08:00,
2013-12-15 01:13:00,61.0,60.4,29.73,SSE,158,4.6,4.6,98,0.01,CLR,,0.02,WeatherDisplay:10.37,2013-12-15 06:13:00,
2013-12-15 01:18:00,61.3,60.7,29.73,West,270,8.3,8.3,98,0.01,CLR,,0.03,WeatherDisplay:10.37,2013-12-15 06:18:00,
2013-12-15 01:23:00,61.5,60.9,29.73,WSW,248,5.8,5.8,98,0.03,RA,,0.04,WeatherDisplay:10.37,2013-12-15 06:23:00,
2013-12-15 01:28:00,61.5,60.9,29.72,WSW,248,6.9,6.9,98,0.03,RA,,0.04,WeatherDisplay:10.37,2013-12-15 06:28:00,
2013-12-15 01:33:00,61.5,60.9,29.72,SSW,202,8.1,8.1,98,0.03,CLR,,0.04,WeatherDisplay:10.37,2013-12-15 06:33:00,
2013-12-15 01:38:00,61.3,60.7,29.72,SW,225,7.4,7.4,98,0.02,CLR,,0.04,WeatherDisplay:10.37,2013-12-15 06:38:00,
2013-12-15 01:43:00,61.3,60.7,29.72,WSW,248,5.8,5.8,98,0.02,CLR,,0.04,WeatherDisplay:10.37,2013-12-15 06:43:00,
2013-12-15 01:48:00,61.2,60.6,29.72,WSW,248,4.6,4.6,98,0.02,CLR,,0.04,WeatherDisplay:10.37,2013-12-15 06:48:00,
2013-12-15 01:53:00,61.0,60.4,29.71,SW,225,4.6,4.6,98,0.02,CLR,,0.04,WeatherDisplay:10.37,2013-12-15 06:53:00,
2013-12-15 01:58:00,61.0,60.4,29.71,West,270,5.8,5.8,98,0.02,CLR,,0.04,WeatherDisplay:10.37,2013-12-15 06:58:00,
2013-12-15 02:03:00,60.8,60.2,29.69,SSE,158,4.6,4.6,98,0.02,CLR,,0.04,WeatherDisplay:10.37,2013-12-15 07:03:00,
2013-12-15 02:08:00,60.8,60.2,29.69,South,180,3.5,3.5,98,0.02,CLR,,0.04,WeatherDisplay:10.37,2013-12-15 07:08:00,
2013-12-15 02:13:00,60.6,60.0,29.69,SSW,202,3.5,3.5,98,0.02,CLR,,0.04,WeatherDisplay:10.37,2013-12-15 07:13:00,
2013-12-15 02:18:00,60.6,60.0,29.70,West,270,5.8,5.8,98,0.02,CLR,,0.04,WeatherDisplay:10.37,2013-12-15 07:18:00,
2013-12-15 02:23:00,60.4,59.8,29.70,SSW,202,4.6,4.6,98,0.00,CLR,,0.04,WeatherDisplay:10.37,2013-12-15 07:23:00,
2013-12-15 02:28:00,60.3,59.7,29.69,West,270,3.5,3.5,98,0.00,CLR,,0.04,WeatherDisplay:10.37,2013-12-15 07:28:00,
2013-12-15 02:33:00,60.3,59.7,29.69,SSW,202,4.7,4.7,98,0.00,CLR,,0.04,WeatherDisplay:10.37,2013-12-15 07:33:00,
2013-12-15 02:38:00,60.1,59.5,29.68,South,180,0.0,0.0,98,0.01,RA,,0.05,WeatherDisplay:10.37,2013-12-15 07:38:00,
2013-12-15 02:43:00,60.1,59.5,29.68,WSW,248,7.4,7.4,98,0.01,RA,,0.05,WeatherDisplay:10.37,2013-12-15 07:43:00,
2013-12-15 02:48:00,60.1,59.5,29.68,ESE,112,3.5,3.5,98,0.01,CLR,,0.05,WeatherDisplay:10.37,2013-12-15 07:48:00,
2013-12-15 02:53:00,59.9,59.3,29.68,SW,225,3.5,3.5,98,0.01,CLR,,0.05,WeatherDisplay:10.37,2013-12-15 07:53:00,
2013-12-15 02:58:00,59.9,59.3,29.68,SSE,158,3.8,3.8,98,0.01,CLR,,0.05,WeatherDisplay:10.37,2013-12-15 07:58:00,
2013-12-15 03:03:00,59.5,58.9,29.69,SW,225,3.5,3.5,98,0.01,CLR,,0.05,WeatherDisplay:10.37,2013-12-15 08:03:00,
2013-12-15 03:08:00,59.5,58.9,29.69,SW,225,3.8,3.8,98,0.01,CLR,,0.05,WeatherDisplay:10.37,2013-12-15 08:08:00,
2013-12-15 03:13:00,59.4,58.8,29.69,WSW,248,3.5,3.5,98,0.02,RA,,0.06,WeatherDisplay:10.37,2013-12-15 08:13:00,
2013-12-15 03:18:00,59.4,58.8,29.69,SSW,202,2.3,2.3,98,0.03,RA,,0.07,WeatherDisplay:10.37,2013-12-15 08:18:00,
2013-12-15 03:23:00,59.2,58.6,29.69,South,180,3.5,3.5,98,0.03,RA,,0.07,WeatherDisplay:10.37,2013-12-15 08:23:00,
2013-12-15 03:28:00,59.2,58.6,29.70,SW,225,5.8,5.8,98,0.04,RA,,0.08,WeatherDisplay:10.37,2013-12-15 08:28:00,
2013-12-15 03:33:00,59.2,58.6,29.70,SW,225,0.0,0.0,98,0.04,RA,,0.08,WeatherDisplay:10.37,2013-12-15 08:33:00,
2013-12-15 03:38:00,59.0,58.4,29.69,SW,225,3.5,3.5,98,0.03,,,0.08,WeatherDisplay:10.37,2013-12-15 08:38:00,
2013-12-15 03:43:00,58.8,58.2,29.69,SSW,202,3.5,3.5,98,0.03,CLR,,0.08,WeatherDisplay:10.37,2013-12-15 08:43:00,
2013-12-15 03:48:00,58.8,58.2,29.69,South,180,2.3,2.3,98,0.03,CLR,,0.08,WeatherDisplay:10.37,2013-12-15 08:48:00,
2013-12-15 03:53:00,58.6,58.0,29.68,SW,225,0.0,0.0,98,0.03,CLR,,0.08,WeatherDisplay:10.37,2013-12-15 08:53:00,
2013-12-15 03:58:00,58.5,57.9,29.68,West,270,3.5,3.5,98,0.03,CLR,,0.08,WeatherDisplay:10.37,2013-12-15 08:58:00,
2013-12-15 04:03:00,58.5,57.9,29.69,West,270,2.9,0.0,98,0.03,CLR,,0.08,WeatherDisplay:10.37,2013-12-15 09:03:00,
2013-12-15 04:08:00,58.5,57.9,29.69,SSW,202,3.5,3.5,98,0.03,CLR,,0.08,WeatherDisplay:10.37,2013-12-15 09:08:00,
2013-12-15 04:13:00,58.6,58.0,29.70,WNW,292,4.7,4.7,98,0.02,CLR,,0.08,WeatherDisplay:10.37,2013-12-15 09:13:00,
2013-12-15 04:18:00,58.6,58.0,29.70,West,270,4.7,4.7,98,0.01,CLR,,0.08,WeatherDisplay:10.37,2013-12-15 09:18:00,
2013-12-15 04:23:00,58.6,58.0,29.70,NNE,22,4.6,4.6,98,0.01,CLR,,0.08,WeatherDisplay:10.37,2013-12-15 09:23:00,
2013-12-15 04:28:00,58.8,58.2,29.69,SW,225,3.5,3.5,98,0.00,CLR,,0.08,WeatherDisplay:10.37,2013-12-15 09:28:00,
2013-12-15 04:33:00,58.8,58.2,29.69,SSW,202,0.0,0.0,98,0.00,CLR,,0.08,WeatherDisplay:10.37,2013-12-15 09:33:00,
2013-12-15 04:38:00,58.8,58.2,29.70,SW,225,0.0,0.0,98,0.00,CLR,,0.08,WeatherDisplay:10.37,2013-12-15 09:38:00,
2013-12-15 04:43:00,58.8,58.2,29.70,SW,225,0.0,0.0,98,0.00,CLR,,0.08,WeatherDisplay:10.37,2013-12-15 09:43:00,
2013-12-15 04:48:00,58.8,58.2,29.70,WSW,248,3.5,3.5,98,0.00,CLR,,0.08,WeatherDisplay:10.37,2013-12-15 09:48:00,
2013-12-15 04:53:00,58.8,58.2,29.70,WNW,292,5.8,5.8,98,0.00,CLR,,0.08,WeatherDisplay:10.37,2013-12-15 09:53:00,
2013-12-15 04:58:00,58.8,58.2,29.70,SW,225,4.7,4.7,98,0.00,CLR,,0.08,WeatherDisplay:10.37,2013-12-15 09:58:00,
2013-12-15 05:03:00,59.2,58.6,29.72,West,270,5.6,5.6,98,0.00,CLR,,0.08,WeatherDisplay:10.37,2013-12-15 10:03:00,
2013-12-15 05:08:00,59.5,58.9,29.72,West,270,10.4,10.4,98,0.00,CLR,,0.08,WeatherDisplay:10.37,2013-12-15 10:08:00,
2013-12-15 05:13:00,59.7,59.1,29.72,WSW,248,11.5,11.5,98,0.00,CLR,,0.08,WeatherDisplay:10.37,2013-12-15 10:13:00,
2013-12-15 05:18:00,59.7,59.1,29.72,West,270,3.8,4.1,98,0.00,CLR,,0.08,WeatherDisplay:10.37,2013-12-15 10:18:00,
2013-12-15 05:23:00,59.7,59.1,29.72,WSW,248,15.0,15.0,98,0.01,RA,,0.09,WeatherDisplay:10.37,2013-12-15 10:23:00,
2013-12-15 05:28:00,59.7,59.1,29.72,NW,315,8.1,8.1,98,0.01,RA,,0.09,WeatherDisplay:10.37,2013-12-15 10:28:00,
2013-12-15 05:33:00,59.5,58.9,29.72,WNW,292,11.5,11.5,98,0.01,,,0.09,WeatherDisplay:10.37,2013-12-15 10:33:00,
2013-12-15 05:38:00,59.5,58.9,29.73,NW,315,6.9,6.9,98,0.01,CLR,,0.09,WeatherDisplay:10.37,2013-12-15 10:38:00,
2013-12-15 05:43:00,59.2,58.6,29.73,WNW,292,14.6,14.6,98,0.01,CLR,,0.09,WeatherDisplay:10.37,2013-12-15 10:43:00,
2013-12-15 05:48:00,58.8,58.2,29.73,West,270,10.4,10.4,98,0.01,CLR,,0.09,WeatherDisplay:10.37,2013-12-15 10:48:00,
2013-12-15 05:53:00,58.8,58.2,29.73,WSW,248,11.5,11.5,98,0.01,CLR,,0.09,WeatherDisplay:10.37,2013-12-15 10:53:00,
2013-12-15 05:58:00,58.5,57.9,29.73,WSW,248,19.6,19.6,98,0.01,CLR,,0.09,WeatherDisplay:10.37,2013-12-15 10:58:00,
2013-12-15 06:03:00,58.1,57.5,29.75,West,270,11.5,11.5,98,0.01,CLR,,0.09,WeatherDisplay:10.37,2013-12-15 11:03:00,
2013-12-15 06:08:00,58.1,57.5,29.75,SW,225,4.6,4.6,98,0.01,CLR,,0.09,WeatherDisplay:10.37,2013-12-15 11:08:00,
2013-12-15 06:13:00,57.7,57.1,29.75,West,270,5.8,5.8,98,0.01,CLR,,0.09,WeatherDisplay:10.37,2013-12-15 11:13:00,
2013-12-15 06:19:00,57.6,57.0,29.75,WNW,292,6.5,6.5,98,0.01,CLR,,0.09,WeatherDisplay:10.37,2013-12-15 11:19:00,
2013-12-15 06:24:00,57.4,56.8,29.75,SW,225,3.5,0.0,98,0.00,CLR,,0.09,WeatherDisplay:10.37,2013-12-15 11:24:00,
2013-12-15 06:29:00,57.2,56.6,29.74,WNW,292,0.0,0.0,98,0.00,CLR,,0.09,WeatherDisplay:10.37,2013-12-15 11:29:00,
2013-12-15 06:34:00,57.0,56.4,29.74,SSE,158,0.0,0.0,98,0.00,CLR,,0.09,WeatherDisplay:10.37,2013-12-15 11:34:00,
2013-12-15 06:39:00,56.8,56.2,29.74,SSW,202,0.0,0.0,98,0.00,CLR,,0.09,WeatherDisplay:10.37,2013-12-15 11:39:00,
2013-12-15 06:44:00,56.8,56.2,29.74,SW,225,0.0,0.0,98,0.00,CLR,,0.09,WeatherDisplay:10.37,2013-12-15 11:44:00,
2013-12-15 06:49:00,56.7,56.1,29.75,SSW,202,0.0,0.0,98,0.00,CLR,,0.09,WeatherDisplay:10.37,2013-12-15 11:49:00,
2013-12-15 06:54:00,56.7,56.1,29.75,SSW,202,0.0,0.0,98,0.00,CLR,,0.09,WeatherDisplay:10.37,2013-12-15 11:54:00,
2013-12-15 06:59:00,56.7,56.1,29.75,South,180,6.9,6.9,98,0.00,CLR,,0.09,WeatherDisplay:10.37,2013-12-15 11:59:00,
2013-12-15 07:04:00,56.3,55.7,29.76,WSW,248,5.8,5.8,98,0.00,CLR,,0.09,WeatherDisplay:10.37,2013-12-15 12:04:00,
2013-12-15 07:09:00,56.1,55.5,29.76,ESE,112,3.5,0.0,98,0.00,CLR,,0.09,WeatherDisplay:10.37,2013-12-15 12:09:00,
2013-12-15 07:14:00,55.9,55.3,29.77,SW,225,3.5,3.5,98,0.00,CLR,,0.09,WeatherDisplay:10.37,2013-12-15 12:14:00,
2013-12-15 07:19:00,55.9,55.3,29.77,SW,225,3.5,3.5,98,0.00,CLR,,0.09,WeatherDisplay:10.37,2013-12-15 12:19:00,
2013-12-15 07:24:00,55.9,55.3,29.77,SW,225,3.5,3.5,98,0.01,RA,,0.10,WeatherDisplay:10.37,2013-12-15 12:24:00,
2013-12-15 07:29:00,55.8,55.2,29.76,WSW,248,3.8,3.8,98,0.01,RA,,0.10,WeatherDisplay:10.37,2013-12-15 12:29:00,
2013-12-15 07:34:00,55.8,55.2,29.76,SW,225,4.6,4.6,98,0.01,CLR,,0.10,WeatherDisplay:10.37,2013-12-15 12:34:00,
2013-12-15 07:39:00,55.8,55.2,29.78,SSW,202,3.8,3.8,98,0.01,CLR,,0.10,WeatherDisplay:10.37,2013-12-15 12:39:00,
2013-12-15 07:44:00,55.6,55.0,29.78,SSE,158,2.9,2.9,98,0.01,CLR,,0.10,WeatherDisplay:10.37,2013-12-15 12:44:00,
2013-12-15 07:49:00,55.6,55.0,29.77,SSW,202,2.3,2.3,98,0.02,RA,,0.11,WeatherDisplay:10.37,2013-12-15 12:49:00,
2013-12-15 07:54:00,55.6,55.0,29.77,West,270,3.8,3.8,98,0.02,RA,,0.11,WeatherDisplay:10.37,2013-12-15 12:54:00,
2013-12-15 07:59:00,55.6,55.0,29.77,SW,225,0.0,0.0,98,0.03,RA,,0.12,WeatherDisplay:10.37,2013-12-15 12:59:00,
2013-12-15 08:04:00,55.6,55.0,29.79,West,270,4.7,4.7,98,0.03,RA,,0.12,WeatherDisplay:10.37,2013-12-15 13:04:00,
2013-12-15 08:09:00,55.6,55.0,29.79,WNW,292,4.7,5.3,98,0.03,CLR,,0.12,WeatherDisplay:10.37,2013-12-15 13:09:00,
2013-12-15 08:14:00,55.6,55.0,29.80,NW,315,9.2,9.2,98,0.03,CLR,,0.12,WeatherDisplay:10.37,2013-12-15 13:14:00,
2013-12-15 08:19:00,55.6,55.0,29.80,West,270,6.9,6.9,98,0.04,RA,,0.13,WeatherDisplay:10.37,2013-12-15 13:19:00,
2013-12-15 08:24:00,55.6,55.0,29.80,SSW,202,0.0,0.0,98,0.03,RA,,0.13,WeatherDisplay:10.37,2013-12-15 13:24:00,
2013-12-15 08:29:00,55.8,55.2,29.77,SW,225,3.5,3.5,98,0.03,,,0.13,WeatherDisplay:10.37,2013-12-15 13:29:00,
2013-12-15 08:34:00,55.8,55.2,29.77,SW,225,0.0,0.0,98,0.03,CLR,,0.13,WeatherDisplay:10.37,2013-12-15 13:34:00,
2013-12-15 08:39:00,55.8,55.2,29.78,SW,225,0.0,0.0,98,0.03,CLR,,0.13,WeatherDisplay:10.37,2013-12-15 13:39:00,
2013-12-15 08:44:00,55.8,55.2,29.78,SSW,202,3.5,3.5,98,0.03,CLR,,0.13,WeatherDisplay:10.37,2013-12-15 13:44:00,
2013-12-15 08:49:00,55.8,55.2,29.79,SW,225,3.5,0.0,98,0.02,CLR,,0.13,WeatherDisplay:10.37,2013-12-15 13:49:00,
2013-12-15 08:54:00,55.8,55.2,29.79,South,180,3.5,3.5,98,0.02,CLR,,0.13,WeatherDisplay:10.37,2013-12-15 13:54:00,
2013-12-15 08:59:00,55.8,55.2,29.79,WSW,248,5.8,5.8,98,0.01,CLR,,0.14,WeatherDisplay:10.37,2013-12-15 13:59:00,
2013-12-15 09:04:00,55.8,55.2,29.82,WSW,248,4.6,4.6,98,0.02,RA,,0.14,WeatherDisplay:10.37,2013-12-15 14:04:00,
2013-12-15 09:09:00,55.8,55.2,29.82,SSW,202,4.6,4.6,98,0.02,RA,,0.14,WeatherDisplay:10.37,2013-12-15 14:09:00,
2013-12-15 09:14:00,55.8,55.2,29.83,West,270,6.5,6.5,98,0.02,CLR,,0.14,WeatherDisplay:10.37,2013-12-15 14:14:00,
2013-12-15 09:19:00,55.8,55.2,29.83,SW,225,6.9,6.9,98,0.01,CLR,,0.14,WeatherDisplay:10.37,2013-12-15 14:19:00,
2013-12-15 09:24:00,55.8,55.2,29.83,West,270,4.6,4.6,98,0.01,CLR,,0.14,WeatherDisplay:10.37,2013-12-15 14:24:00,
2013-12-15 09:29:00,55.8,55.2,29.81,SSW,202,6.9,6.9,98,0.01,CLR,,0.14,WeatherDisplay:10.37,2013-12-15 14:29:00,
2013-12-15 09:34:00,55.8,55.2,29.81,South,180,5.8,5.8,98,0.01,CLR,,0.14,WeatherDisplay:10.37,2013-12-15 14:34:00,
2013-12-15 09:40:00,55.8,55.2,29.77,WSW,248,3.8,3.8,98,0.01,CLR,,0.14,WeatherDisplay:10.37,2013-12-15 14:40:00,
2013-12-15 09:45:00,55.8,55.2,29.77,West,270,6.9,6.9,98,0.01,CLR,,0.14,WeatherDisplay:10.37,2013-12-15 14:45:00,
2013-12-15 09:50:00,55.9,55.3,29.81,West,270,8.1,8.1,98,0.01,CLR,,0.14,WeatherDisplay:10.37,2013-12-15 14:50:00,
2013-12-15 09:55:00,56.3,55.7,29.81,NW,315,5.8,5.8,98,0.01,CLR,,0.14,WeatherDisplay:10.37,2013-12-15 14:55:00,
2013-12-15 10:00:00,56.3,55.7,29.81,WSW,248,4.7,4.7,98,0.01,CLR,,0.14,WeatherDisplay:10.37,2013-12-15 15:00:00,
2013-12-15 10:05:00,56.3,55.7,29.81,South,180,6.9,6.9,98,0.00,CLR,,0.14,WeatherDisplay:10.37,2013-12-15 15:05:00,
2013-12-15 10:10:00,56.3,55.7,29.81,WSW,248,9.2,9.2,98,0.00,CLR,,0.14,WeatherDisplay:10.37,2013-12-15 15:10:00,
2013-12-15 10:15:00,56.1,55.3,29.83,WNW,292,11.5,11.5,97,0.00,CLR,,0.14,WeatherDisplay:10.37,2013-12-15 15:15:00,
2013-12-15 10:20:00,56.1,55.3,29.83,West,270,12.7,12.7,97,0.00,CLR,,0.14,WeatherDisplay:10.37,2013-12-15 15:20:00,
2013-12-15 10:25:00,55.9,55.1,29.83,West,270,11.0,11.0,97,0.00,CLR,,0.14,WeatherDisplay:10.37,2013-12-15 15:25:00,
2013-12-15 10:30:00,55.9,55.1,29.84,West,270,15.0,15.0,97,0.00,CLR,,0.14,WeatherDisplay:10.37,2013-12-15 15:30:00,
2013-12-15 10:35:00,55.9,54.8,29.84,WNW,292,9.2,9.2,96,0.00,CLR,,0.14,WeatherDisplay:10.37,2013-12-15 15:35:00,
2013-12-15 10:40:00,56.1,55.3,29.83,West,270,9.2,9.2,97,0.00,CLR,,0.14,WeatherDisplay:10.37,2013-12-15 15:40:00,
2013-12-15 10:45:00,56.3,55.2,29.83,West,270,12.7,12.7,96,0.00,CLR,,0.14,WeatherDisplay:10.37,2013-12-15 15:45:00,
2013-12-15 10:50:00,56.5,55.1,29.82,NW,315,8.3,8.3,95,0.00,CLR,,0.14,WeatherDisplay:10.37,2013-12-15 15:50:00,
2013-12-15 10:55:00,56.7,54.7,29.82,NNW,338,12.7,12.7,93,0.00,CLR,,0.14,WeatherDisplay:10.37,2013-12-15 15:55:00,
2013-12-15 11:00:00,56.7,55.0,29.82,WNW,292,11.0,11.0,94,0.00,CLR,,0.14,WeatherDisplay:10.37,2013-12-15 16:00:00,
2013-12-15 11:05:00,56.5,54.5,29.82,West,270,13.8,13.8,93,0.00,CLR,,0.14,WeatherDisplay:10.37,2013-12-15 16:05:00,
2013-12-15 11:10:00,56.3,54.9,29.82,West,270,6.9,6.9,95,0.00,CLR,,0.14,WeatherDisplay:10.37,2013-12-15 16:10:00,
2013-12-15 11:15:00,55.8,54.1,29.81,NNW,338,11.5,11.5,94,0.00,CLR,,0.14,WeatherDisplay:10.37,2013-12-15 16:15:00,
2013-12-15 11:20:00,55.2,53.5,29.81,WNW,292,15.5,15.5,94,0.00,CLR,,0.14,WeatherDisplay:10.37,2013-12-15 16:20:00,
2013-12-15 11:25:00,55.2,53.5,29.81,NW,315,11.5,11.5,94,0.00,CLR,,0.14,WeatherDisplay:10.37,2013-12-15 16:25:00,
2013-12-15 11:30:00,55.0,53.6,29.82,WSW,248,12.7,12.7,95,0.00,CLR,,0.14,WeatherDisplay:10.37,2013-12-15 16:30:00,
2013-12-15 11:35:00,54.9,53.2,29.82,NW,315,15.5,15.5,94,0.00,CLR,,0.14,WeatherDisplay:10.37,2013-12-15 16:35:00,
2013-12-15 11:40:00,54.7,53.0,29.82,NW,315,12.7,12.7,94,0.00,CLR,,0.14,WeatherDisplay:10.37,2013-12-15 16:40:00,
2013-12-15 11:45:00,54.5,52.8,29.82,WNW,292,12.8,12.8,94,0.00,CLR,,0.14,WeatherDisplay:10.37,2013-12-15 16:45:00,
2013-12-15 11:50:00,54.5,52.8,29.81,West,270,10.4,10.4,94,0.00,CLR,,0.14,WeatherDisplay:10.37,2013-12-15 16:50:00,
2013-12-15 11:55:00,54.5,52.8,29.81,West,270,6.9,6.9,94,0.00,CLR,,0.14,WeatherDisplay:10.37,2013-12-15 16:55:00,
2013-12-15 12:00:00,54.5,52.8,29.81,West,270,11.5,11.5,94,0.00,CLR,,0.14,WeatherDisplay:10.37,2013-12-15 17:00:00,
2013-12-15 12:05:00,54.0,52.6,29.80,NW,315,16.1,16.1,95,0.00,CLR,,0.14,WeatherDisplay:10.37,2013-12-15 17:05:00,
2013-12-15 12:10:00,53.6,52.2,29.80,NW,315,13.8,13.8,95,0.00,CLR,,0.14,WeatherDisplay:10.37,2013-12-15 17:10:00,
2013-12-15 12:15:00,53.6,52.5,29.80,West,270,10.1,10.1,96,0.00,CLR,,0.14,WeatherDisplay:10.37,2013-12-15 17:15:00,
2013-12-15 12:20:00,53.4,52.0,29.80,WNW,292,19.1,19.1,95,0.00,CLR,,0.14,WeatherDisplay:10.37,2013-12-15 17:20:00,
2013-12-15 12:25:00,52.9,51.5,29.80,NW,315,11.0,11.0,95,0.00,CLR,,0.14,WeatherDisplay:10.37,2013-12-15 17:25:00,
2013-12-15 12:30:00,52.5,51.1,29.80,West,270,13.8,13.8,95,0.00,CLR,,0.14,WeatherDisplay:10.37,2013-12-15 17:30:00,
2013-12-15 12:35:00,52.3,51.2,29.80,West,270,10.4,10.4,96,0.00,CLR,,0.14,WeatherDisplay:10.37,2013-12-15 17:35:00,
2013-12-15 12:40:00,52.3,51.2,29.81,WSW,248,11.5,11.5,96,0.00,CLR,,0.14,WeatherDisplay:10.37,2013-12-15 17:40:00,
2013-12-15 12:45:00,52.3,51.2,29.81,WNW,292,13.8,13.8,96,0.00,CLR,,0.14,WeatherDisplay:10.37,2013-12-15 17:45:00,
2013-12-15 12:50:00,52.9,51.2,29.81,West,270,12.7,12.7,94,0.00,CLR,,0.14,WeatherDisplay:10.37,2013-12-15 17:50:00,
2013-12-15 12:55:00,54.3,52.9,29.81,WSW,248,3.5,3.5,95,0.00,CLR,,0.14,WeatherDisplay:10.37,2013-12-15 17:55:00,
2013-12-15 13:00:00,55.4,52.5,29.81,West,270,6.9,6.9,90,0.00,CLR,,0.14,WeatherDisplay:10.37,2013-12-15 18:00:00,
2013-12-15 13:05:00,55.8,52.0,29.83,WNW,292,8.1,8.1,87,0.00,CLR,,0.14,WeatherDisplay:10.37,2013-12-15 18:05:00,
2013-12-15 13:10:00,56.5,52.4,29.83,NW,315,6.9,6.9,86,0.00,CLR,,0.14,WeatherDisplay:10.37,2013-12-15 18:10:00,
2013-12-15 13:15:00,56.7,51.3,29.83,WSW,248,11.5,11.5,82,0.00,CLR,,0.14,WeatherDisplay:10.37,2013-12-15 18:15:00,
2013-12-15 13:20:00,55.9,50.5,29.83,West,270,11.5,11.5,82,0.00,CLR,,0.14,WeatherDisplay:10.37,2013-12-15 18:20:00,
2013-12-15 13:25:00,55.8,51.0,29.82,WSW,248,7.4,7.4,84,0.00,CLR,,0.14,WeatherDisplay:10.37,2013-12-15 18:25:00,
2013-12-15 13:30:00,55.2,50.1,29.82,West,270,11.5,11.5,83,0.00,CLR,,0.14,WeatherDisplay:10.37,2013-12-15 18:30:00,
2013-12-15 13:35:00,55.2,50.8,29.82,WNW,292,6.9,6.9,85,0.00,CLR,,0.14,WeatherDisplay:10.37,2013-12-15 18:35:00,
2013-12-15 13:40:00,55.4,50.6,29.82,WSW,248,6.9,6.9,84,0.00,CLR,,0.14,WeatherDisplay:10.37,2013-12-15 18:40:00,
2013-12-15 13:45:00,55.6,50.5,29.82,West,270,6.9,6.9,83,0.00,CLR,,0.14,WeatherDisplay:10.37,2013-12-15 18:45:00,
2013-12-15 13:50:00,55.8,50.1,29.83,WSW,248,6.9,6.9,81,0.00,CLR,,0.14,WeatherDisplay:10.37,2013-12-15 18:50:00,
2013-12-15 13:56:00,55.4,49.0,29.83,WSW,248,11.5,11.5,79,0.00,CLR,,0.14,WeatherDisplay:10.37,2013-12-15 18:56:00,
2013-12-15 14:01:00,55.4,49.0,29.83,West,270,11.5,11.5,79,0.00,CLR,,0.14,WeatherDisplay:10.37,2013-12-15 19:01:00,
2013-12-15 14:06:00,55.8,49.0,29.83,WNW,292,12.7,12.7,78,0.00,CLR,,0.14,WeatherDisplay:10.37,2013-12-15 19:06:00,
2013-12-15 14:11:00,56.3,49.5,29.83,SW,225,9.2,9.2,78,0.00,CLR,,0.14,WeatherDisplay:10.37,2013-12-15 19:11:00,
2013-12-15 14:16:00,57.4,50.2,29.83,WNW,292,6.9,6.9,77,0.00,CLR,,0.14,WeatherDisplay:10.37,2013-12-15 19:16:00,
2013-12-15 14:21:00,57.0,49.5,29.83,NW,315,11.5,11.5,76,0.00,CLR,,0.14,WeatherDisplay:10.37,2013-12-15 19:21:00,
2013-12-15 14:26:00,56.8,49.7,29.83,WNW,292,10.4,10.4,77,0.00,CLR,,0.14,WeatherDisplay:10.37,2013-12-15 19:26:00,
2013-12-15 14:31:00,56.3,48.5,29.83,NW,315,11.9,11.9,75,0.00,CLR,,0.14,WeatherDisplay:10.37,2013-12-15 19:31:00,
2013-12-15 14:36:00,56.1,48.6,29.83,West,270,9.2,9.2,76,0.00,CLR,,0.14,WeatherDisplay:10.37,2013-12-15 19:36:00,
2013-12-15 14:41:00,56.1,48.3,29.83,West,270,10.1,10.1,75,0.00,CLR,,0.14,WeatherDisplay:10.37,2013-12-15 19:41:00,
2013-12-15 14:46:00,55.6,47.4,29.83,NW,315,11.5,11.5,74,0.00,CLR,,0.14,WeatherDisplay:10.37,2013-12-15 19:46:00,
2013-12-15 14:47:00,55.4,47.6,29.83,NW,315,12.7,12.7,75,0.00,CLR,,0.14,WeatherDisplay:10.37,2013-12-15 19:47:00,
2013-12-15 14:52:00,55.2,47.8,29.83,WNW,292,10.4,10.4,76,0.00,CLR,,0.14,WeatherDisplay:10.37,2013-12-15 19:52:00,
2013-12-15 14:57:00,55.0,47.9,29.83,NW,315,13.8,13.8,77,0.00,CLR,,0.14,WeatherDisplay:10.37,2013-12-15 19:57:00,
2013-12-15 15:02:00,55.0,47.9,29.82,NW,315,11.5,11.5,77,0.00,CLR,,0.14,WeatherDisplay:10.37,2013-12-15 20:02:00,
2013-12-15 15:07:00,55.2,48.5,29.82,West,270,6.9,6.9,78,0.00,CLR,,0.14,WeatherDisplay:10.37,2013-12-15 20:07:00,
2013-12-15 15:12:00,55.2,48.5,29.82,WNW,292,6.9,6.9,78,0.00,CLR,,0.14,WeatherDisplay:10.37,2013-12-15 20:12:00,
2013-12-15 15:17:00,55.4,48.7,29.83,NW,315,6.9,6.9,78,0.00,CLR,,0.14,WeatherDisplay:10.37,2013-12-15 20:17:00,
2013-12-15 15:22:00,55.4,48.7,29.83,NW,315,4.7,4.7,78,0.00,CLR,,0.14,WeatherDisplay:10.37,2013-12-15 20:22:00,
2013-12-15 15:27:00,55.4,48.7,29.84,West,270,8.3,8.3,78,0.00,CLR,,0.14,WeatherDisplay:10.37,2013-12-15 20:27:00,
2013-12-15 15:32:00,55.4,49.0,29.84,West,270,6.9,6.9,79,0.00,CLR,,0.14,WeatherDisplay:10.37,2013-12-15 20:32:00,
2013-12-15 15:37:00,55.4,49.0,29.83,West,270,3.5,3.5,79,0.00,CLR,,0.14,WeatherDisplay:10.37,2013-12-15 20:37:00,
2013-12-15 15:42:00,55.4,49.0,29.83,West,270,3.5,3.5,79,0.00,CLR,,0.14,WeatherDisplay:10.37,2013-12-15 20:42:00,
2013-12-15 15:47:00,55.0,48.3,29.83,NNW,338,11.5,11.5,78,0.00,CLR,,0.14,WeatherDisplay:10.37,2013-12-15 20:47:00,
2013-12-15 15:52:00,55.0,48.6,29.84,WNW,292,4.6,4.6,79,0.00,CLR,,0.14,WeatherDisplay:10.37,2013-12-15 20:52:00,
2013-12-15 15:57:00,55.0,48.6,29.84,West,270,6.9,6.9,79,0.00,CLR,,0.14,WeatherDisplay:10.37,2013-12-15 20:57:00,
2013-12-15 16:02:00,54.9,48.5,29.85,WNW,292,8.3,8.3,79,0.00,CLR,,0.14,WeatherDisplay:10.37,2013-12-15 21:02:00,
2013-12-15 16:07:00,54.5,48.1,29.85,West,270,7.4,7.4,79,0.00,CLR,,0.14,WeatherDisplay:10.37,2013-12-15 21:07:00,
2013-12-15 16:12:00,54.3,47.9,29.85,NW,315,10.4,10.4,79,0.00,CLR,,0.14,WeatherDisplay:10.37,2013-12-15 21:12:00,
2013-12-15 16:17:00,54.3,48.6,29.86,West,270,3.8,3.8,81,0.00,CLR,,0.14,WeatherDisplay:10.37,2013-12-15 21:17:00,
2013-12-15 16:22:00,54.1,48.1,29.86,West,270,4.7,4.7,80,0.00,CLR,,0.14,WeatherDisplay:10.37,2013-12-15 21:22:00,
2013-12-15 16:27:00,54.0,48.6,29.87,West,270,6.5,6.5,82,0.00,CLR,,0.14,WeatherDisplay:10.37,2013-12-15 21:27:00,
2013-12-15 16:32:00,53.6,47.6,29.87,West,270,6.9,6.9,80,0.00,CLR,,0.14,WeatherDisplay:10.37,2013-12-15 21:32:00,
2013-12-15 16:37:00,53.4,47.4,29.88,West,270,6.9,6.9,80,0.00,CLR,,0.14,WeatherDisplay:10.37,2013-12-15 21:37:00,
2013-12-15 16:42:00,53.1,47.7,29.88,WNW,292,8.3,8.3,82,0.00,CLR,,0.14,WeatherDisplay:10.37,2013-12-15 21:42:00,
2013-12-15 16:47:00,52.9,47.6,29.88,WNW,292,6.9,6.9,82,0.00,CLR,,0.14,WeatherDisplay:10.37,2013-12-15 21:47:00,
2013-12-15 16:52:00,52.5,47.2,29.88,NW,315,11.5,11.5,82,0.00,CLR,,0.14,WeatherDisplay:10.37,2013-12-15 21:52:00,
2013-12-15 16:57:00,52.3,47.0,29.88,West,270,8.1,8.1,82,0.00,CLR,,0.14,WeatherDisplay:10.37,2013-12-15 21:57:00,
2013-12-15 17:02:00,52.0,46.7,29.89,West,270,6.9,6.9,82,0.00,CLR,,0.14,WeatherDisplay:10.37,2013-12-15 22:02:00,
2013-12-15 17:07:00,51.8,46.5,29.89,West,270,6.9,6.9,82,0.00,CLR,,0.14,WeatherDisplay:10.37,2013-12-15 22:07:00,
2013-12-15 17:12:00,51.4,46.4,29.89,West,270,5.6,5.6,83,0.00,CLR,,0.14,WeatherDisplay:10.37,2013-12-15 22:12:00,
2013-12-15 17:17:00,51.3,46.3,29.90,WNW,292,4.6,4.6,83,0.00,CLR,,0.14,WeatherDisplay:10.37,2013-12-15 22:17:00,
2013-12-15 17:22:00,51.1,46.4,29.90,West,270,4.7,4.7,84,0.00,CLR,,0.14,WeatherDisplay:10.37,2013-12-15 22:22:00,
2013-12-15 17:27:00,50.7,46.0,29.90,West,270,4.6,4.6,84,0.00,CLR,,0.14,WeatherDisplay:10.37,2013-12-15 22:27:00,
2013-12-15 17:32:00,50.7,46.4,29.90,WSW,248,4.6,4.6,85,0.00,CLR,,0.14,WeatherDisplay:10.37,2013-12-15 22:32:00,
2013-12-15 17:37:00,50.5,46.2,29.91,West,270,3.5,3.5,85,0.00,CLR,,0.14,WeatherDisplay:10.37,2013-12-15 22:37:00,
2013-12-15 17:42:00,50.5,46.5,29.91,WSW,248,5.8,5.8,86,0.00,CLR,,0.14,WeatherDisplay:10.37,2013-12-15 22:42:00,
2013-12-15 17:47:00,50.4,46.4,29.91,WSW,248,3.8,3.8,86,0.00,CLR,,0.14,WeatherDisplay:10.37,2013-12-15 22:47:00,
2013-12-15 17:52:00,50.4,46.4,29.92,WNW,292,9.2,9.2,86,0.00,CLR,,0.14,WeatherDisplay:10.37,2013-12-15 22:52:00,
2013-12-15 17:57:00,50.2,46.2,29.92,WNW,292,10.4,10.4,86,0.00,CLR,,0.14,WeatherDisplay:10.37,2013-12-15 22:57:00,
2013-12-15 18:02:00,50.2,46.2,29.92,NW,315,8.1,8.1,86,0.00,CLR,,0.14,WeatherDisplay:10.37,2013-12-15 23:02:00,
2013-12-15 18:07:00,49.8,46.1,29.92,West,270,6.9,6.9,87,0.00,CLR,,0.14,WeatherDisplay:10.37,2013-12-15 23:07:00,
2013-12-15 18:12:00,49.6,46.2,29.93,WNW,292,6.5,6.5,88,0.00,CLR,,0.14,WeatherDisplay:10.37,2013-12-15 23:12:00,
2013-12-15 18:17:00,49.5,46.1,29.93,NNW,338,4.6,4.6,88,0.00,CLR,,0.14,WeatherDisplay:10.37,2013-12-15 23:17:00,
2013-12-15 18:22:00,49.1,46.0,29.93,North,360,4.6,4.6,89,0.00,CLR,,0.14,WeatherDisplay:10.37,2013-12-15 23:22:00,
2013-12-15 18:27:00,48.7,45.6,29.93,WNW,292,4.6,4.6,89,0.00,CLR,,0.14,WeatherDisplay:10.37,2013-12-15 23:27:00,
2013-12-15 18:32:00,48.6,45.8,29.93,NW,315,5.8,5.8,90,0.00,CLR,,0.14,WeatherDisplay:10.37,2013-12-15 23:32:00,
2013-12-15 18:37:00,48.6,45.8,29.94,WNW,292,4.7,4.7,90,0.00,CLR,,0.14,WeatherDisplay:10.37,2013-12-15 23:37:00,
2013-12-15 18:42:00,48.4,45.6,29.94,West,270,4.7,4.7,90,0.00,CLR,,0.14,WeatherDisplay:10.37,2013-12-15 23:42:00,
2013-12-15 18:47:00,48.2,45.4,29.94,WNW,292,6.9,6.9,90,0.00,CLR,,0.14,WeatherDisplay:10.37,2013-12-15 23:47:00,
2013-12-15 18:52:00,48.2,45.4,29.94,West,270,6.9,6.9,90,0.00,CLR,,0.14,WeatherDisplay:10.37,2013-12-15 23:52:00,
2013-12-15 18:57:00,47.8,45.3,29.94,West,270,0.0,0.0,91,0.00,CLR,,0.14,WeatherDisplay:10.37,2013-12-15 23:57:00,
2013-12-15 19:02:00,47.7,45.2,29.95,WSW,248,3.5,0.0,91,0.00,CLR,,0.14,WeatherDisplay:10.37,2013-12-16 00:02:00,
2013-12-15 19:07:00,47.5,45.3,29.95,West,270,2.3,0.0,92,0.00,CLR,,0.14,WeatherDisplay:10.37,2013-12-16 00:07:00,
2013-12-15 19:12:00,46.9,45.0,29.95,West,270,3.5,3.5,93,0.00,CLR,,0.14,WeatherDisplay:10.37,2013-12-16 00:12:00,
2013-12-15 19:17:00,46.8,45.2,29.95,West,270,0.0,0.0,94,0.00,CLR,,0.14,WeatherDisplay:10.37,2013-12-16 00:17:00,
2013-12-15 19:22:00,46.6,45.2,29.95,West,270,0.0,0.0,95,0.00,CLR,,0.14,WeatherDisplay:10.37,2013-12-16 00:22:00,
2013-12-15 19:27:00,46.2,44.8,29.96,WSW,248,0.0,0.0,95,0.00,CLR,,0.14,WeatherDisplay:10.37,2013-12-16 00:27:00,
2013-12-15 19:32:00,45.7,44.6,29.96,West,270,0.0,0.0,96,0.00,CLR,,0.14,WeatherDisplay:10.37,2013-12-16 00:32:00,
2013-12-15 19:37:00,45.5,44.7,29.97,West,270,0.0,0.0,97,0.00,CLR,,0.14,WeatherDisplay:10.37,2013-12-16 00:37:00,
2013-12-15 19:42:00,45.1,44.3,29.97,WSW,248,0.0,0.0,97,0.00,CLR,,0.14,WeatherDisplay:10.37,2013-12-16 00:42:00,
2013-12-15 19:47:00,44.8,44.3,29.97,West,270,0.0,0.0,98,0.00,CLR,,0.14,WeatherDisplay:10.37,2013-12-16 00:47:00,
2013-12-15 19:52:00,44.4,43.9,29.97,West,270,0.0,0.0,98,0.00,CLR,,0.14,WeatherDisplay:10.37,2013-12-16 00:52:00,
2013-12-15 19:57:00,44.2,43.7,29.97,West,270,0.0,0.0,98,0.00,CLR,,0.14,WeatherDisplay:10.37,2013-12-16 00:57:00,
2013-12-15 20:02:00,43.9,43.1,29.98,South,180,0.0,0.0,97,0.00,CLR,,0.14,WeatherDisplay:10.37,2013-12-16 01:02:00,
2013-12-15 20:07:00,43.5,42.7,29.98,SE,135,0.0,0.0,97,0.00,CLR,,0.14,WeatherDisplay:10.37,2013-12-16 01:07:00,
2013-12-15 20:12:00,43.2,42.4,29.98,South,180,0.0,0.0,97,0.00,CLR,,0.14,WeatherDisplay:10.37,2013-12-16 01:12:00,
2013-12-15 20:17:00,43.0,42.5,29.98,WSW,248,0.0,0.0,98,0.00,CLR,,0.14,WeatherDisplay:10.37,2013-12-16 01:17:00,
2013-12-15 20:23:00,42.8,42.3,29.98,West,270,0.0,0.0,98,0.00,CLR,,0.14,WeatherDisplay:10.37,2013-12-16 01:23:00,
2013-12-15 20:28:00,42.8,42.3,29.98,WNW,292,0.0,0.0,98,0.00,CLR,,0.14,WeatherDisplay:10.37,2013-12-16 01:28:00,
2013-12-15 20:33:00,42.6,42.1,29.98,WNW,292,0.0,0.0,98,0.00,CLR,,0.14,WeatherDisplay:10.37,2013-12-16 01:33:00,
2013-12-15 20:38:00,42.4,41.9,29.99,West,270,0.0,0.0,98,0.00,CLR,,0.14,WeatherDisplay:10.37,2013-12-16 01:38:00,
2013-12-15 20:43:00,42.3,41.8,29.99,SSW,202,0.0,0.0,98,0.00,CLR,,0.14,WeatherDisplay:10.37,2013-12-16 01:43:00,
2013-12-15 20:48:00,42.1,41.6,29.99,West,270,0.0,0.0,98,0.00,CLR,,0.14,WeatherDisplay:10.37,2013-12-16 01:48:00,
2013-12-15 20:53:00,42.1,41.6,30.00,West,270,0.0,0.0,98,0.00,CLR,,0.14,WeatherDisplay:10.37,2013-12-16 01:53:00,
2013-12-15 20:58:00,41.9,41.4,30.00,West,270,0.0,0.0,98,0.00,CLR,,0.14,WeatherDisplay:10.37,2013-12-16 01:58:00,
2013-12-15 21:03:00,41.9,41.4,30.00,West,270,0.0,0.0,98,0.00,CLR,,0.14,WeatherDisplay:10.37,2013-12-16 02:03:00,
2013-12-15 21:08:00,41.7,41.2,30.00,WNW,292,0.0,0.0,98,0.00,CLR,,0.14,WeatherDisplay:10.37,2013-12-16 02:08:00,
2013-12-15 21:13:00,41.7,41.2,30.01,WSW,248,0.0,0.0,98,0.00,CLR,,0.14,WeatherDisplay:10.37,2013-12-16 02:13:00,
2013-12-15 21:18:00,41.7,41.2,30.01,SW,225,0.0,0.0,98,0.00,CLR,,0.14,WeatherDisplay:10.37,2013-12-16 02:18:00,
2013-12-15 21:23:00,41.5,41.0,30.01,West,270,0.0,0.0,98,0.00,CLR,,0.14,WeatherDisplay:10.37,2013-12-16 02:23:00,
2013-12-15 21:28:00,41.5,41.0,30.02,West,270,0.0,0.0,98,0.00,CLR,,0.14,WeatherDisplay:10.37,2013-12-16 02:28:00,
2013-12-15 21:33:00,41.4,40.9,30.02,West,270,0.0,0.0,98,0.00,CLR,,0.14,WeatherDisplay:10.37,2013-12-16 02:33:00,
2013-12-15 21:38:00,41.4,40.9,30.02,WSW,248,5.8,5.8,98,0.00,CLR,,0.14,WeatherDisplay:10.37,2013-12-16 02:38:00,
2013-12-15 21:43:00,41.4,40.9,30.02,SW,225,0.0,0.0,98,0.00,CLR,,0.14,WeatherDisplay:10.37,2013-12-16 02:43:00,
2013-12-15 21:48:00,41.4,40.9,30.02,SW,225,0.0,0.0,98,0.00,CLR,,0.14,WeatherDisplay:10.37,2013-12-16 02:48:00,
2013-12-15 21:53:00,41.7,41.2,30.03,West,270,4.7,4.7,98,0.00,CLR,,0.14,WeatherDisplay:10.37,2013-12-16 02:53:00,
2013-12-15 21:58:00,42.6,42.1,30.03,NW,315,4.7,4.7,98,0.00,CLR,,0.14,WeatherDisplay:10.37,2013-12-16 02:58:00,
2013-12-15 22:03:00,42.8,42.3,30.03,WNW,292,6.9,6.9,98,0.00,CLR,,0.14,WeatherDisplay:10.37,2013-12-16 03:03:00,
2013-12-15 22:08:00,43.2,42.7,30.03,West,270,6.9,6.9,98,0.00,CLR,,0.14,WeatherDisplay:10.37,2013-12-16 03:08:00,
2013-12-15 22:13:00,43.5,43.0,30.03,WNW,292,6.9,6.9,98,0.00,CLR,,0.14,WeatherDisplay:10.37,2013-12-16 03:13:00,
2013-12-15 22:18:00,43.7,42.6,30.03,West,270,8.3,8.3,96,0.00,CLR,,0.14,WeatherDisplay:10.37,2013-12-16 03:18:00,
2013-12-15 22:23:00,43.7,41.8,30.03,NW,315,4.6,4.6,93,0.00,CLR,,0.14,WeatherDisplay:10.37,2013-12-16 03:23:00,
2013-12-15 22:28:00,43.9,41.7,30.04,WNW,292,7.4,7.4,92,0.00,CLR,,0.14,WeatherDisplay:10.37,2013-12-16 03:28:00,
2013-12-15 22:33:00,43.9,41.4,30.04,NW,315,6.9,6.9,91,0.00,CLR,,0.14,WeatherDisplay:10.37,2013-12-16 03:33:00,
2013-12-15 22:38:00,43.9,41.2,30.04,WNW,292,6.9,6.9,90,0.00,CLR,,0.14,WeatherDisplay:10.37,2013-12-16 03:38:00,
2013-12-15 22:39:00,43.9,40.9,30.04,NNW,338,7.4,7.4,89,0.00,CLR,,0.14,WeatherDisplay:10.37,2013-12-16 03:39:00,
2013-12-15 22:44:00,43.9,40.6,30.04,NNW,338,8.1,8.1,88,0.00,CLR,,0.14,WeatherDisplay:10.37,2013-12-16 03:44:00,
2013-12-15 22:49:00,43.9,40.6,30.04,NW,315,6.9,7.0,88,0.00,CLR,,0.14,WeatherDisplay:10.37,2013-12-16 03:49:00,
2013-12-15 22:54:00,43.7,40.4,30.04,WNW,292,6.9,6.9,88,0.00,CLR,,0.14,WeatherDisplay:10.37,2013-12-16 03:54:00,
2013-12-15 22:59:00,43.5,39.9,30.04,North,360,10.4,10.4,87,0.00,CLR,,0.14,WeatherDisplay:10.37,2013-12-16 03:59:00,
2013-12-15 23:04:00,43.3,39.7,30.05,West,270,6.9,6.9,87,0.00,CLR,,0.14,WeatherDisplay:10.37,2013-12-16 04:04:00,
2013-12-15 23:09:00,43.2,39.6,30.05,NNW,338,7.4,7.4,87,0.00,CLR,,0.14,WeatherDisplay:10.37,2013-12-16 04:09:00,
2013-12-15 23:14:00,43.0,39.4,30.04,West,270,9.2,9.2,87,0.00,CLR,,0.14,WeatherDisplay:10.37,2013-12-16 04:14:00,
2013-12-15 23:19:00,43.0,39.1,30.04,WNW,292,9.2,9.2,86,0.00,CLR,,0.14,WeatherDisplay:10.37,2013-12-16 04:19:00,
2013-12-15 23:24:00,43.0,38.5,30.04,West,270,6.9,6.9,84,0.00,CLR,,0.14,WeatherDisplay:10.37,2013-12-16 04:24:00,
2013-12-15 23:29:00,42.8,38.3,30.05,West,270,6.9,6.9,84,0.00,CLR,,0.14,WeatherDisplay:10.37,2013-12-16 04:29:00,
2013-12-15 23:34:00,42.8,38.0,30.05,WNW,292,10.4,10.4,83,0.00,CLR,,0.14,WeatherDisplay:10.37,2013-12-16 04:34:00,
2013-12-15 23:39:00,42.6,37.8,30.05,NNW,338,5.8,5.8,83,0.00,CLR,,0.14,WeatherDisplay:10.37,2013-12-16 04:39:00,
2013-12-15 23:44:00,42.4,37.6,30.05,NNW,338,8.1,8.1,83,0.00,CLR,,0.14,WeatherDisplay:10.37,2013-12-16 04:44:00,
2013-12-15 23:49:00,42.4,37.0,30.05,WNW,292,11.0,11.0,81,0.00,CLR,,0.14,WeatherDisplay:10.37,2013-12-16 04:49:00,
2013-12-15 23:54:00,42.4,36.7,30.05,NNW,338,10.4,10.4,80,0.00,CLR,,0.14,WeatherDisplay:10.37,2013-12-16 04:54:00,
2013-12-15 23:59:00,42.4,36.7,30.05,NW,315,9.2,9.2,80,0.00,CLR,,0.14,WeatherDisplay:10.37,2013-12-16 04:59:00,